Terminal Aerodrome Forecast
Issued by NWS

Home | Current Version | Previous Version | Text Only | Print | Product List | Glossary On
Versions: 1 2 3 4 5 6 7 8 9 10 11 12 13 14 15 16 17 18 19 20 21 22 23 24 25 26 27 28 29 30 31 32 33 34 35 36 37 38 39 40 41 42 43 44 45 46 47 48 49 50
000
FTUS44 KHGX 241207
TAFSGR
TAFSGR
TAF AMD
KSGR 241207Z 2412/2512 15008KT P6SM TSRA FEW013 FEW040CB BKN110
      TEMPO 2412/2413 6SM -SHRA BR OVC100
     FM241300 15012G18KT P6SM SCT025 OVC250
     FM241900 17013KT P6SM SCT030
      TEMPO 2419/2423 -TSRA BKN030CB
     FM250300 16010KT P6SM BKN050
     FM250900 16012KT 6SM SHRA BKN020 OVC250=

USA.gov is the U.S. government's official web portal to all federal, state and local government web resources and services.